createdAt,value
2023-02-08T00:00:05.873Z,80263.22
2023-02-08T00:02:34.397Z,80272.84
2023-02-08T00:05:01.051Z,80282.50
2023-02-08T00:07:27.743Z,80288.28
2023-02-08T00:09:54.414Z,80299.88
2023-02-08T00:12:21.070Z,80311.44
2023-02-08T00:14:47.675Z,80323.03
2023-02-08T00:17:14.249Z,80346.16
2023-02-08T00:19:40.973Z,80365.47
2023-02-08T00:22:07.871Z,80369.31
2023-02-08T00:24:34.459Z,80373.19
2023-02-08T00:27:00.998Z,80377.03
2023-02-08T00:29:27.570Z,80380.91
2023-02-08T00:31:54.196Z,80392.47
2023-02-08T00:34:20.813Z,80407.91
2023-02-08T00:36:47.368Z,80413.69
2023-02-08T00:39:14.085Z,80415.63
2023-02-08T00:41:41.175Z,80423.34
2023-02-08T00:44:07.879Z,80434.91
2023-02-08T00:46:35.253Z,80438.75
2023-02-08T00:49:04.842Z,80446.47
2023-02-08T00:51:31.485Z,80452.28
2023-02-08T00:53:58.163Z,80450.34
2023-02-08T00:56:24.770Z,80460.00
2023-02-08T00:58:51.512Z,80469.63
2023-02-08T01:01:18.338Z,80477.34
2023-02-08T01:03:45.052Z,80492.78
2023-02-08T01:06:15.270Z,80485.06
2023-02-08T01:08:42.163Z,80496.66
2023-02-08T01:11:14.312Z,80488.94
2023-02-08T01:13:41.395Z,80488.94
2023-02-08T01:16:14.953Z,80500.50
2023-02-08T01:18:43.748Z,80512.06
2023-02-08T01:21:13.575Z,80521.72
2023-02-08T01:23:41.456Z,80531.38
2023-02-08T01:26:10.084Z,80544.88
2023-02-08T01:28:38.917Z,80542.94
2023-02-08T01:31:25.720Z,80533.28
2023-02-08T01:33:52.461Z,80527.50
2023-02-08T01:36:19.140Z,80544.88
2023-02-08T01:38:46.113Z,80542.94
2023-02-08T01:41:22.213Z,80558.38
2023-02-08T01:44:07.234Z,80558.38
2023-02-08T01:46:48.709Z,80566.09
2023-02-08T01:49:33.525Z,80566.09
2023-02-08T01:52:15.090Z,80558.38
2023-02-08T01:55:14.037Z,80556.44
2023-02-08T01:57:42.240Z,80562.25
2023-02-08T02:00:16.334Z,80558.38
2023-02-08T02:02:45.732Z,80562.25
2023-02-08T02:05:13.340Z,80569.94
2023-02-08T02:07:40.792Z,80573.81
2023-02-08T02:10:20.649Z,80581.53
2023-02-08T02:12:47.595Z,80573.81
2023-02-08T02:15:14.297Z,80585.38
2023-02-08T02:17:41.426Z,80595.03
2023-02-08T02:20:17.080Z,80591.19
2023-02-08T02:23:05.401Z,80596.97
2023-02-08T02:25:52.200Z,80598.91
2023-02-08T02:28:43.597Z,80596.97
2023-02-08T02:31:29.170Z,80604.69
2023-02-08T02:34:39.519Z,80600.81
2023-02-08T02:37:41.134Z,80596.97
2023-02-08T02:40:42.272Z,80600.81
2023-02-08T02:43:37.117Z,80604.69
2023-02-08T02:46:19.665Z,80596.97
2023-02-08T02:49:16.876Z,80600.81
2023-02-08T02:51:50.924Z,80596.97
2023-02-08T02:54:22.942Z,80589.25
2023-02-08T02:56:53.762Z,80579.59
2023-02-08T02:59:22.564Z,80558.38
2023-02-08T03:01:49.391Z,80562.25
2023-02-08T03:04:42.289Z,80550.66
2023-02-08T03:07:08.728Z,80562.25
2023-02-08T03:09:43.395Z,80571.88
2023-02-08T03:12:22.936Z,80552.59
2023-02-08T03:15:17.155Z,80558.38
2023-02-08T03:18:21.829Z,80577.66
2023-02-08T03:21:17.036Z,80577.66
2023-02-08T03:23:50.465Z,80591.19
2023-02-08T03:26:23.775Z,80595.03
2023-02-08T03:29:12.620Z,80604.69
2023-02-08T03:31:41.627Z,80610.47
2023-02-08T03:34:23.956Z,80623.97
2023-02-08T03:37:00.363Z,80641.34
2023-02-08T03:39:29.943Z,80635.56
2023-02-08T03:42:04.630Z,80645.19
2023-02-08T03:44:41.895Z,80647.13
2023-02-08T03:47:16.033Z,80666.41
2023-02-08T03:49:44.931Z,80662.56
2023-02-08T03:52:12.063Z,80666.41
2023-02-08T03:54:54.443Z,80662.56
2023-02-08T03:57:22.806Z,80647.13
2023-02-08T03:59:56.583Z,80658.69
2023-02-08T04:02:28.975Z,80666.41
2023-02-08T04:04:56.739Z,80666.41
2023-02-08T04:07:23.607Z,80681.84
2023-02-08T04:09:50.299Z,80685.72
2023-02-08T04:12:16.939Z,80697.28
2023-02-08T04:14:43.560Z,80706.94
2023-02-08T04:17:10.248Z,80718.50
2023-02-08T04:19:36.829Z,80726.22
2023-02-08T04:22:03.507Z,80716.59
2023-02-08T04:24:30.086Z,80716.59
2023-02-08T04:26:56.700Z,80710.78
2023-02-08T04:29:23.478Z,80716.59
2023-02-08T04:31:50.290Z,80720.44
2023-02-08T04:34:16.875Z,80720.44
2023-02-08T04:36:43.615Z,80720.44
2023-02-08T04:39:10.280Z,80722.38
2023-02-08T04:41:36.879Z,80720.44
2023-02-08T04:44:03.632Z,80728.16
2023-02-08T04:46:30.253Z,80732.00
2023-02-08T04:48:58.779Z,80749.38
2023-02-08T04:51:25.640Z,80751.31
2023-02-08T04:53:52.253Z,80762.88
2023-02-08T04:56:19.117Z,80759.03
2023-02-08T04:58:45.780Z,80751.31
2023-02-08T05:01:12.543Z,80751.31
2023-02-08T05:03:39.231Z,80735.88
2023-02-08T05:06:06.198Z,80751.31
2023-02-08T05:08:32.834Z,80766.75
2023-02-08T05:10:59.480Z,80789.91
2023-02-08T05:13:26.158Z,80809.19
2023-02-08T05:15:52.732Z,80816.91
2023-02-08T05:18:19.428Z,80820.78
2023-02-08T05:20:46.067Z,80807.25
2023-02-08T05:23:12.719Z,80797.63
2023-02-08T05:25:40.471Z,80797.63
2023-02-08T05:28:07.134Z,80799.53
2023-02-08T05:30:33.728Z,80799.53
2023-02-08T05:33:00.324Z,80801.47
2023-02-08T05:35:27.040Z,80809.19
2023-02-08T05:37:53.612Z,80799.53
2023-02-08T05:40:20.235Z,80813.06
2023-02-08T05:42:47.996Z,80816.91
2023-02-08T05:45:15.011Z,80824.63
2023-02-08T05:47:42.135Z,80820.78
2023-02-08T05:50:09.497Z,80809.19
2023-02-08T05:52:36.115Z,80809.19
2023-02-08T05:55:02.810Z,80803.41
2023-02-08T05:57:31.408Z,80816.91
2023-02-08T05:59:58.558Z,80830.41
2023-02-08T06:02:25.273Z,80842.00
2023-02-08T06:04:52.149Z,80859.34
2023-02-08T06:07:18.723Z,80874.78
2023-02-08T06:09:47.071Z,80882.50
2023-02-08T06:12:14.775Z,80882.50
2023-02-08T06:14:41.392Z,80878.66
2023-02-08T06:17:07.990Z,80867.06
2023-02-08T06:19:34.623Z,80855.50
2023-02-08T06:22:01.308Z,80843.91
2023-02-08T06:24:27.873Z,80828.47
2023-02-08T06:26:54.641Z,80813.06
2023-02-08T06:29:21.247Z,80793.75
2023-02-08T06:31:48.072Z,80759.03
2023-02-08T06:34:14.769Z,80710.78
2023-02-08T06:36:41.359Z,80658.69
2023-02-08T06:39:08.035Z,80616.25
2023-02-08T06:41:34.827Z,80566.09
2023-02-08T06:44:02.247Z,80542.94
2023-02-08T06:46:28.821Z,80519.78
2023-02-08T06:48:56.936Z,80508.22
2023-02-08T06:51:23.883Z,80496.66
2023-02-08T06:53:50.627Z,80469.63
2023-02-08T06:56:17.410Z,80461.91
2023-02-08T06:58:44.025Z,80450.34
2023-02-08T07:01:14.666Z,80434.91
2023-02-08T07:03:42.165Z,80396.31
2023-02-08T07:06:16.786Z,80361.59
2023-02-08T07:08:43.784Z,80350.03
2023-02-08T07:11:12.577Z,80311.44
2023-02-08T07:13:39.378Z,80369.31
2023-02-08T07:16:08.100Z,80334.59
2023-02-08T07:18:34.942Z,80307.59
2023-02-08T07:21:01.912Z,80267.06
2023-02-08T07:23:28.748Z,80228.50
2023-02-08T07:26:00.002Z,80191.84
2023-02-08T07:28:27.088Z,80218.84
2023-02-08T07:30:54.502Z,80199.56
2023-02-08T07:33:23.131Z,80234.28
2023-02-08T07:35:50.220Z,80170.63
2023-02-08T07:38:20.645Z,80160.97
2023-02-08T07:40:48.113Z,80124.31
2023-02-08T07:43:14.746Z,80081.88
2023-02-08T07:45:50.643Z,80064.53
2023-02-08T07:48:17.262Z,80130.09
2023-02-08T07:50:43.925Z,80176.41
2023-02-08T07:53:10.513Z,80209.19
2023-02-08T07:55:37.102Z,80259.34
2023-02-08T07:58:03.658Z,80292.16
2023-02-08T08:00:30.220Z,80324.94
2023-02-08T08:02:56.912Z,80307.59
2023-02-08T08:05:23.656Z,80301.78
2023-02-08T08:07:50.340Z,80317.22
2023-02-08T08:10:17.099Z,80296.00
2023-02-08T08:12:43.720Z,80272.84
2023-02-08T08:15:10.541Z,80276.72
2023-02-08T08:17:37.112Z,80249.72
2023-02-08T08:20:03.763Z,80242.00
2023-02-08T08:22:30.329Z,80226.56
2023-02-08T08:24:58.182Z,80238.13
2023-02-08T08:27:24.772Z,80242.00
2023-02-08T08:29:51.586Z,80189.91
2023-02-08T08:32:18.189Z,80193.75
2023-02-08T08:34:44.755Z,80168.69
2023-02-08T08:37:11.424Z,80157.13
2023-02-08T08:39:38.011Z,80153.25
2023-02-08T08:42:04.770Z,80176.41
2023-02-08T08:44:31.446Z,80155.19
2023-02-08T08:46:59.040Z,80133.97
2023-02-08T08:49:26.692Z,80103.09
2023-02-08T08:51:53.395Z,80079.97
2023-02-08T08:54:21.009Z,80062.59
2023-02-08T08:56:47.646Z,80064.53
2023-02-08T08:59:14.505Z,80056.81
2023-02-08T09:01:42.724Z,80091.53
2023-02-08T09:04:10.912Z,80054.88
2023-02-08T09:06:37.647Z,80058.75
2023-02-08T09:09:04.540Z,80114.69
2023-02-08T09:11:33.174Z,80143.63
2023-02-08T09:14:04.308Z,80170.63
2023-02-08T09:16:32.666Z,80172.56
2023-02-08T09:19:03.674Z,80164.84
2023-02-08T09:21:32.183Z,80176.41
2023-02-08T09:23:58.802Z,80203.41
2023-02-08T09:26:26.643Z,80168.69
2023-02-08T09:28:53.843Z,80149.41
2023-02-08T09:31:31.397Z,80114.69
2023-02-08T09:34:00.768Z,80099.25
2023-02-08T09:36:29.980Z,80106.97
2023-02-08T09:39:02.819Z,80110.81
2023-02-08T09:41:44.654Z,80108.88
2023-02-08T09:44:32.263Z,80106.97
2023-02-08T09:47:06.684Z,80016.31
2023-02-08T09:49:47.260Z,80037.53
2023-02-08T09:52:18.301Z,80064.53
2023-02-08T09:54:54.016Z,80031.72
2023-02-08T09:57:26.172Z,79968.06
2023-02-08T09:59:56.409Z,79995.09
2023-02-08T10:02:27.370Z,79933.34
2023-02-08T10:05:02.468Z,79914.06
2023-02-08T10:07:30.850Z,79860.06
2023-02-08T10:10:03.878Z,79912.13
2023-02-08T10:12:36.179Z,79887.06
2023-02-08T10:15:10.708Z,79887.06
2023-02-08T10:18:11.887Z,79840.78
2023-02-08T10:20:53.268Z,79813.75
2023-02-08T10:23:23.506Z,79854.28
2023-02-08T10:26:14.474Z,79819.56
2023-02-08T10:28:58.048Z,79761.69
2023-02-08T10:31:58.259Z,79771.34
2023-02-08T10:34:37.161Z,79736.63
2023-02-08T10:37:16.906Z,79717.31
2023-02-08T10:39:44.449Z,79672.97
2023-02-08T10:42:17.408Z,79717.31
2023-02-08T10:45:12.727Z,79767.47
2023-02-08T10:48:13.215Z,79688.41
2023-02-08T10:50:43.830Z,79663.31
2023-02-08T10:53:16.729Z,79665.25
2023-02-08T10:55:47.687Z,79669.09
2023-02-08T10:58:20.440Z,79667.19
2023-02-08T11:00:48.470Z,79713.47
2023-02-08T11:03:20.776Z,79726.97
2023-02-08T11:05:47.601Z,79775.19
2023-02-08T11:08:19.516Z,79736.63
2023-02-08T11:11:07.779Z,79692.25
2023-02-08T11:13:43.582Z,79672.97
2023-02-08T11:16:13.648Z,79638.25
2023-02-08T11:18:47.912Z,79605.47
2023-02-08T11:21:25.138Z,79620.88
2023-02-08T11:23:54.575Z,79609.31
2023-02-08T11:26:23.865Z,79620.88
2023-02-08T11:29:14.327Z,79578.47
2023-02-08T11:32:02.690Z,79522.53
2023-02-08T11:34:35.411Z,79505.16
2023-02-08T11:37:25.870Z,79555.31
2023-02-08T11:40:03.847Z,79572.66
2023-02-08T11:42:41.154Z,79595.81
2023-02-08T11:45:08.313Z,79549.53
2023-02-08T11:47:37.441Z,79534.09
2023-02-08T11:50:07.519Z,79487.81
2023-02-08T11:52:38.193Z,79493.59
2023-02-08T11:55:16.763Z,79495.53
2023-02-08T11:58:02.613Z,79476.22
2023-02-08T12:00:30.667Z,79451.16
2023-02-08T12:03:05.874Z,79441.53
2023-02-08T12:06:02.049Z,79485.88
2023-02-08T12:08:56.292Z,79505.16
2023-02-08T12:11:56.551Z,79472.38
2023-02-08T12:14:47.623Z,79480.09
2023-02-08T12:17:51.474Z,79503.22
2023-02-08T12:20:35.672Z,79499.38
2023-02-08T12:23:14.104Z,79509.03
2023-02-08T12:25:40.775Z,79470.44
2023-02-08T12:28:25.654Z,79462.72
2023-02-08T12:31:01.434Z,79455.03
2023-02-08T12:33:58.857Z,79420.31
2023-02-08T12:36:43.952Z,79408.72
2023-02-08T12:39:48.095Z,79408.72
2023-02-08T12:42:54.589Z,79404.88
2023-02-08T12:45:48.952Z,79381.72
2023-02-08T12:48:36.716Z,79412.59
2023-02-08T12:51:26.606Z,79410.66
2023-02-08T12:53:57.874Z,79406.81
2023-02-08T12:56:30.492Z,79404.88
2023-02-08T12:59:11.801Z,79410.66
2023-02-08T13:01:53.945Z,79447.31
2023-02-08T13:04:42.843Z,79431.88
2023-02-08T13:07:25.647Z,79422.22
2023-02-08T13:09:57.319Z,79449.22
2023-02-08T13:12:28.542Z,79443.44
2023-02-08T13:15:02.962Z,79470.44
2023-02-08T13:17:43.596Z,79439.59
2023-02-08T13:20:32.605Z,79397.16
2023-02-08T13:23:13.343Z,79428.03
2023-02-08T13:25:42.455Z,79431.88
2023-02-08T13:28:19.136Z,79447.31
2023-02-08T13:30:52.508Z,79429.94
2023-02-08T13:33:29.628Z,79443.44
2023-02-08T13:35:57.829Z,79420.31
2023-02-08T13:38:33.095Z,79437.66
2023-02-08T13:41:15.797Z,79456.94
2023-02-08T13:43:46.001Z,79456.94
2023-02-08T13:46:13.412Z,79443.44
2023-02-08T13:48:46.960Z,79455.03
2023-02-08T13:51:36.717Z,79456.94
2023-02-08T13:54:11.524Z,79460.81
2023-02-08T13:56:46.632Z,79455.03
2023-02-08T13:59:30.375Z,79455.03
2023-02-08T14:02:12.106Z,79462.72
2023-02-08T14:04:41.075Z,79462.72
2023-02-08T14:07:16.946Z,79455.03
2023-02-08T14:10:07.844Z,79451.16
2023-02-08T14:12:43.666Z,79462.72
2023-02-08T14:15:16.285Z,79458.88
2023-02-08T14:17:47.490Z,79455.03
2023-02-08T14:20:54.796Z,79458.88
2023-02-08T14:23:24.450Z,79458.88
2023-02-08T14:25:54.844Z,79458.88
2023-02-08T14:28:35.794Z,79466.59
2023-02-08T14:31:07.369Z,79460.81
2023-02-08T14:33:53.729Z,79458.88
2023-02-08T14:36:35.529Z,79451.16
2023-02-08T14:39:23.304Z,79451.16
2023-02-08T14:42:01.108Z,79460.81
2023-02-08T14:44:41.600Z,79468.53
2023-02-08T14:47:26.796Z,79466.59
2023-02-08T14:50:18.766Z,79468.53
2023-02-08T14:52:54.454Z,79478.16
2023-02-08T14:55:28.278Z,79478.16
2023-02-08T14:57:56.774Z,79483.94
2023-02-08T15:00:27.369Z,79482.03
2023-02-08T15:02:55.879Z,79474.31
2023-02-08T15:05:26.049Z,79470.44
2023-02-08T15:08:02.319Z,79478.16
2023-02-08T15:10:30.533Z,79489.72
2023-02-08T15:13:03.722Z,79505.16
2023-02-08T15:15:34.592Z,79516.72
2023-02-08T15:18:03.551Z,79514.81
2023-02-08T15:20:33.555Z,79524.44
2023-02-08T15:23:17.979Z,79543.75
2023-02-08T15:25:53.775Z,79557.25
2023-02-08T15:28:23.736Z,79570.75
2023-02-08T15:31:00.457Z,79588.09
2023-02-08T15:33:27.682Z,79601.59
2023-02-08T15:36:00.977Z,79613.16
2023-02-08T15:38:29.234Z,79626.69
2023-02-08T15:41:10.891Z,79645.97
2023-02-08T15:43:39.081Z,79651.75
2023-02-08T15:46:17.136Z,79667.19
2023-02-08T15:48:46.541Z,79674.88
2023-02-08T15:51:16.101Z,79698.03
2023-02-08T15:53:45.466Z,79711.53
2023-02-08T15:56:34.253Z,79721.19
2023-02-08T15:59:04.384Z,79732.75
2023-02-08T16:01:31.940Z,79748.19
2023-02-08T16:04:05.974Z,79767.47
2023-02-08T16:06:40.517Z,79784.84
2023-02-08T16:09:07.471Z,79790.63
2023-02-08T16:11:36.113Z,79802.19
2023-02-08T16:14:05.272Z,79800.25
2023-02-08T16:16:37.764Z,79811.84
2023-02-08T16:19:27.389Z,79821.47
2023-02-08T16:21:57.172Z,79836.91
2023-02-08T16:24:28.093Z,79844.63
2023-02-08T16:26:56.705Z,79840.78
2023-02-08T16:29:26.497Z,79834.97
2023-02-08T16:32:03.580Z,79850.41
2023-02-08T16:34:35.576Z,79860.06
2023-02-08T16:37:04.687Z,79873.56
2023-02-08T16:39:48.453Z,79889.00
2023-02-08T16:42:27.625Z,79912.13
2023-02-08T16:45:02.432Z,79919.84
2023-02-08T16:47:39.438Z,79925.63
2023-02-08T16:50:07.856Z,79937.22
2023-02-08T16:52:35.304Z,79937.22
2023-02-08T16:55:02.372Z,79944.94
2023-02-08T16:57:42.794Z,79956.50
2023-02-08T17:00:35.797Z,79960.34
2023-02-08T17:03:02.499Z,79968.06
2023-02-08T17:05:32.156Z,79975.78
2023-02-08T17:07:59.812Z,79979.66
2023-02-08T17:10:29.932Z,79993.16
2023-02-08T17:13:13.280Z,79998.94
2023-02-08T17:15:46.741Z,80000.88
2023-02-08T17:18:13.880Z,80002.78
2023-02-08T17:20:40.527Z,80014.38
2023-02-08T17:23:07.632Z,80025.94
2023-02-08T17:25:35.105Z,80037.53
2023-02-08T17:28:07.882Z,80033.66
2023-02-08T17:30:41.337Z,80045.22
2023-02-08T17:33:10.131Z,80043.31
2023-02-08T17:35:38.182Z,80056.81
2023-02-08T17:38:05.545Z,80064.53
2023-02-08T17:40:35.339Z,80068.38
2023-02-08T17:43:03.483Z,80062.59
2023-02-08T17:45:30.511Z,80058.75
2023-02-08T17:48:00.034Z,80056.81
2023-02-08T17:50:27.121Z,80068.38
2023-02-08T17:52:54.138Z,80076.09
2023-02-08T17:55:20.938Z,80081.88
2023-02-08T17:57:48.196Z,80093.47
2023-02-08T18:00:20.386Z,80106.97
2023-02-08T18:02:49.968Z,80110.81
2023-02-08T18:05:25.574Z,80116.59
2023-02-08T18:07:54.379Z,80130.09
2023-02-08T18:10:22.200Z,80133.97
2023-02-08T18:12:48.853Z,80145.53
2023-02-08T18:15:19.886Z,80151.31
2023-02-08T18:17:47.803Z,80160.97
2023-02-08T18:20:15.560Z,80168.69
2023-02-08T18:22:43.713Z,80172.56
2023-02-08T18:25:11.665Z,80168.69
2023-02-08T18:27:38.302Z,80172.56
2023-02-08T18:30:05.600Z,80168.69
2023-02-08T18:32:32.342Z,80168.69
2023-02-08T18:34:59.522Z,80180.25
2023-02-08T18:37:26.525Z,80172.56
2023-02-08T18:39:53.319Z,80168.69
2023-02-08T18:42:19.972Z,80164.84
2023-02-08T18:44:46.631Z,80178.34
2023-02-08T18:47:13.228Z,80189.91
2023-02-08T18:49:42.652Z,80187.97
2023-02-08T18:52:11.513Z,80191.84
2023-02-08T18:54:39.565Z,80203.41
2023-02-08T18:57:09.533Z,80199.56
2023-02-08T18:59:37.257Z,80203.41
2023-02-08T19:02:06.884Z,80209.19
2023-02-08T19:04:39.799Z,80213.06
2023-02-08T19:07:07.201Z,80207.28
2023-02-08T19:09:40.283Z,80213.06
2023-02-08T19:12:07.935Z,80215.00
2023-02-08T19:14:34.829Z,80218.84
2023-02-08T19:17:02.289Z,80226.56
2023-02-08T19:19:29.361Z,80230.41
2023-02-08T19:21:55.968Z,80238.13
2023-02-08T19:24:22.642Z,80230.41
2023-02-08T19:26:49.218Z,80234.28
2023-02-08T19:29:19.867Z,80234.28
2023-02-08T19:31:47.356Z,80222.72
2023-02-08T19:34:15.154Z,80238.13
2023-02-08T19:36:51.640Z,80249.72
2023-02-08T19:39:21.093Z,80249.72
2023-02-08T19:41:48.552Z,80261.28
2023-02-08T19:44:17.685Z,80269.00
2023-02-08T19:46:48.772Z,80272.84
2023-02-08T19:49:16.368Z,80278.66
2023-02-08T19:51:43.117Z,80278.66
2023-02-08T19:54:13.749Z,80282.50
2023-02-08T19:56:41.324Z,80296.00
2023-02-08T19:59:17.108Z,80292.16
2023-02-08T20:01:44.308Z,80294.09
2023-02-08T20:04:12.427Z,80290.22
2023-02-08T20:06:39.654Z,80305.66
2023-02-08T20:09:07.862Z,80307.59
2023-02-08T20:11:54.753Z,80319.16
2023-02-08T20:14:23.458Z,80319.16
2023-02-08T20:16:50.249Z,80323.03
2023-02-08T20:19:16.874Z,80315.31
2023-02-08T20:21:45.234Z,80326.88
2023-02-08T20:24:12.685Z,80324.94
2023-02-08T20:26:41.666Z,80324.94
2023-02-08T20:29:09.756Z,80317.22
2023-02-08T20:31:38.529Z,80315.31
2023-02-08T20:34:07.232Z,80301.78
2023-02-08T20:36:40.760Z,80326.88
2023-02-08T20:39:11.080Z,80334.59
2023-02-08T20:41:38.322Z,80336.53
2023-02-08T20:44:05.450Z,80338.44
2023-02-08T20:46:34.724Z,80355.81
2023-02-08T20:49:03.595Z,80369.31
2023-02-08T20:51:31.239Z,80373.19
2023-02-08T20:53:59.249Z,80373.19
2023-02-08T20:56:38.039Z,80380.91
2023-02-08T20:59:06.663Z,80382.81
2023-02-08T21:01:34.828Z,80388.59
2023-02-08T21:04:02.698Z,80392.47
2023-02-08T21:06:32.462Z,80404.03
2023-02-08T21:09:02.629Z,80411.75
2023-02-08T21:11:30.936Z,80400.19
2023-02-08T21:13:58.476Z,80396.31
2023-02-08T21:16:25.817Z,80398.25
2023-02-08T21:18:52.806Z,80409.81
2023-02-08T21:21:20.139Z,80411.75
2023-02-08T21:23:47.475Z,80415.63
2023-02-08T21:26:17.354Z,80417.53
2023-02-08T21:28:44.521Z,80419.47
2023-02-08T21:31:15.675Z,80411.75
2023-02-08T21:33:43.467Z,80407.91
2023-02-08T21:36:14.380Z,80377.03
2023-02-08T21:38:42.089Z,80365.47
2023-02-08T21:41:15.693Z,80323.03
2023-02-08T21:43:42.688Z,80323.03
2023-02-08T21:46:10.141Z,80324.94
2023-02-08T21:48:55.908Z,80307.59
2023-02-08T21:51:43.212Z,80307.59
2023-02-08T21:54:34.160Z,80297.94
2023-02-08T21:57:05.655Z,80297.94
2023-02-08T21:59:37.492Z,80299.88
2023-02-08T22:02:06.997Z,80297.94
2023-02-08T22:04:35.259Z,80299.88
2023-02-08T22:07:04.538Z,80296.00
2023-02-08T22:09:31.693Z,80280.56
2023-02-08T22:11:58.809Z,80265.16
2023-02-08T22:14:25.749Z,80249.72
2023-02-08T22:16:52.511Z,80242.00
2023-02-08T22:19:19.356Z,80243.94
2023-02-08T22:21:46.063Z,80249.72
2023-02-08T22:24:12.679Z,80259.34
2023-02-08T22:26:39.479Z,80270.94
2023-02-08T22:29:06.139Z,80284.44
2023-02-08T22:31:32.921Z,80280.56
2023-02-08T22:33:59.699Z,80286.38
2023-02-08T22:36:26.905Z,80284.44
2023-02-08T22:38:53.551Z,80284.44
2023-02-08T22:41:20.205Z,80278.66
2023-02-08T22:43:46.933Z,80280.56
2023-02-08T22:46:13.631Z,80276.72
2023-02-08T22:48:41.119Z,80284.44
2023-02-08T22:51:09.491Z,80292.16
2023-02-08T22:53:36.321Z,80296.00
2023-02-08T22:56:03.337Z,80292.16
2023-02-08T22:58:30.308Z,80297.94
2023-02-08T23:00:57.141Z,80299.88
2023-02-08T23:03:23.966Z,80297.94
2023-02-08T23:05:52.201Z,80296.00
2023-02-08T23:08:23.489Z,80307.59
2023-02-08T23:10:57.507Z,80311.44
2023-02-08T23:13:24.226Z,80307.59
2023-02-08T23:15:51.182Z,80311.44
2023-02-08T23:18:17.906Z,80319.16
2023-02-08T23:20:44.764Z,80311.44
2023-02-08T23:23:11.636Z,80303.72
2023-02-08T23:25:40.015Z,80303.72
2023-02-08T23:28:08.428Z,80326.88
2023-02-08T23:30:35.163Z,80330.72
2023-02-08T23:33:01.799Z,80338.44
2023-02-08T23:35:28.475Z,80342.31
2023-02-08T23:37:55.090Z,80346.16
2023-02-08T23:40:21.690Z,80357.75
2023-02-08T23:42:48.369Z,80355.81
2023-02-08T23:45:15.106Z,80359.66
2023-02-08T23:47:41.775Z,80363.53
2023-02-08T23:50:10.072Z,80367.38
2023-02-08T23:52:37.388Z,80365.47
2023-02-08T23:55:05.229Z,80365.47
2023-02-08T23:57:33.868Z,80361.59
